createdAt,value
2023-04-15T00:00:37.952Z,8.48
2023-04-15T00:03:54.646Z,8.25
2023-04-15T00:07:07.322Z,7.43
2023-04-15T00:10:20.049Z,8.57
2023-04-15T00:13:35.461Z,7.57
2023-04-15T00:16:50.175Z,7.60
2023-04-15T00:20:02.557Z,8.13
2023-04-15T00:23:15.156Z,6.87
2023-04-15T00:26:27.700Z,8.55
2023-04-15T00:29:41.320Z,10.20
2023-04-15T00:32:53.905Z,8.38
2023-04-15T00:36:08.673Z,8.05
2023-04-15T00:39:21.069Z,9.02
2023-04-15T00:42:34.986Z,8.32
2023-04-15T00:45:47.510Z,10.20
2023-04-15T00:49:00.385Z,8.75
2023-04-15T00:52:13.305Z,8.60
2023-04-15T00:55:25.979Z,9.57
2023-04-15T00:58:38.351Z,10.85
2023-04-15T01:01:51.957Z,10.85
2023-04-15T01:05:04.710Z,9.55
2023-04-15T01:08:17.310Z,9.55
2023-04-15T01:11:29.705Z,9.13
2023-04-15T01:14:42.561Z,9.20
2023-04-15T01:17:54.949Z,9.63
2023-04-15T01:21:07.874Z,9.57
2023-04-15T01:24:21.325Z,8.95
2023-04-15T01:27:35.728Z,7.10
2023-04-15T01:30:48.711Z,6.70
2023-04-15T01:34:01.595Z,7.65
2023-04-15T01:37:14.069Z,6.68
2023-04-15T01:40:26.687Z,7.93
2023-04-15T01:43:39.073Z,7.68
2023-04-15T01:46:51.732Z,5.75
2023-04-15T01:50:06.946Z,7.85
2023-04-15T01:53:19.952Z,6.95
2023-04-15T01:56:32.357Z,7.80
2023-04-15T01:59:45.053Z,6.60
2023-04-15T02:02:57.504Z,8.35
2023-04-15T02:06:10.410Z,7.72
2023-04-15T02:09:22.926Z,7.55
2023-04-15T02:12:35.832Z,8.05
2023-04-15T02:15:49.032Z,9.68
2023-04-15T02:19:02.183Z,9.13
2023-04-15T02:22:18.724Z,9.20
2023-04-15T02:25:32.118Z,10.23
2023-04-15T02:28:44.501Z,8.90
2023-04-15T02:32:00.343Z,9.45
2023-04-15T02:35:13.381Z,12.05
2023-04-15T02:38:26.166Z,9.88
2023-04-15T02:41:38.583Z,9.10
2023-04-15T02:44:51.261Z,11.90
2023-04-15T02:48:06.474Z,11.60
2023-04-15T02:51:20.732Z,9.18
2023-04-15T02:54:34.112Z,9.93
2023-04-15T02:57:46.912Z,12.25
2023-04-15T03:00:59.350Z,11.68
2023-04-15T03:04:12.093Z,10.82
2023-04-15T03:07:24.639Z,10.32
2023-04-15T03:10:38.943Z,10.45
2023-04-15T03:13:51.597Z,10.93
2023-04-15T03:17:06.705Z,11.02
2023-04-15T03:20:19.761Z,13.65
2023-04-15T03:23:33.183Z,16.15
2023-04-15T03:26:45.802Z,9.95
2023-04-15T03:29:59.535Z,9.55
2023-04-15T03:33:12.789Z,11.48
2023-04-15T03:36:26.310Z,12.55
2023-04-15T03:39:39.311Z,10.95
2023-04-15T03:42:51.977Z,12.10
2023-04-15T03:46:04.699Z,10.13
2023-04-15T03:49:17.388Z,14.23
2023-04-15T03:52:29.750Z,13.00
2023-04-15T03:55:42.381Z,13.07
2023-04-15T03:58:54.741Z,9.88
2023-04-15T04:02:07.482Z,10.88
2023-04-15T04:05:20.331Z,13.90
2023-04-15T04:08:32.691Z,11.48
2023-04-15T04:11:45.801Z,10.00
2023-04-15T04:14:58.133Z,11.02
2023-04-15T04:18:10.753Z,13.60
2023-04-15T04:21:23.074Z,12.55
2023-04-15T04:24:35.816Z,12.57
2023-04-15T04:27:48.195Z,10.32
2023-04-15T04:31:01.335Z,11.40
2023-04-15T04:34:13.664Z,11.73
2023-04-15T04:37:26.613Z,12.70
2023-04-15T04:40:38.959Z,12.05
2023-04-15T04:43:51.577Z,12.25
2023-04-15T04:47:03.938Z,12.02
2023-04-15T04:50:17.002Z,10.10
2023-04-15T04:53:29.379Z,13.18
2023-04-15T04:56:42.066Z,10.60
2023-04-15T04:59:54.395Z,11.50
2023-04-15T05:03:07.286Z,16.65
2023-04-15T05:06:19.803Z,17.67
2023-04-15T05:09:33.134Z,14.18
2023-04-15T05:12:45.695Z,14.02
2023-04-15T05:15:58.334Z,12.80
2023-04-15T05:19:10.860Z,11.65
2023-04-15T05:22:23.506Z,12.73
2023-04-15T05:25:37.281Z,20.70
2023-04-15T05:28:50.326Z,13.20
2023-04-15T05:32:02.686Z,14.27
2023-04-15T05:35:15.356Z,14.13
2023-04-15T05:38:27.738Z,14.30
2023-04-15T05:41:40.620Z,14.77
2023-04-15T05:44:52.995Z,13.80
2023-04-15T05:48:05.645Z,14.55
2023-04-15T05:51:17.992Z,13.73
2023-04-15T05:54:30.619Z,13.15
2023-04-15T05:57:43.014Z,14.00
2023-04-15T06:00:55.692Z,12.37
2023-04-15T06:04:08.377Z,16.27
2023-04-15T06:07:21.153Z,10.02
2023-04-15T06:10:36.691Z,12.55
2023-04-15T06:13:49.215Z,11.73
2023-04-15T06:17:02.136Z,10.23
2023-04-15T06:20:14.910Z,9.93
2023-04-15T06:23:28.062Z,12.50
2023-04-15T06:26:40.626Z,10.90
2023-04-15T06:29:53.296Z,9.45
2023-04-15T06:33:06.415Z,10.88
2023-04-15T06:36:19.486Z,10.52
2023-04-15T06:39:31.861Z,7.72
2023-04-15T06:42:44.522Z,8.20
2023-04-15T06:45:57.418Z,10.48
2023-04-15T06:49:10.411Z,11.15
2023-04-15T06:52:23.231Z,8.77
2023-04-15T06:55:35.934Z,10.13
2023-04-15T06:58:48.294Z,7.47
2023-04-15T07:02:01.540Z,6.37
2023-04-15T07:05:14.084Z,7.68
2023-04-15T07:08:26.756Z,8.35
2023-04-15T07:11:39.102Z,6.53
2023-04-15T07:14:51.886Z,6.40
2023-04-15T07:18:04.283Z,6.65
2023-04-15T07:21:17.250Z,6.53
2023-04-15T07:24:29.597Z,7.37
2023-04-15T07:27:42.479Z,5.03
2023-04-15T07:30:55.527Z,6.28
2023-04-15T07:34:08.546Z,7.20
2023-04-15T07:37:20.946Z,5.20
2023-04-15T07:40:33.752Z,5.85
2023-04-15T07:43:46.089Z,5.43
2023-04-15T07:46:58.717Z,4.95
2023-04-15T07:50:14.818Z,4.55
2023-04-15T07:53:27.495Z,5.07
2023-04-15T07:56:39.842Z,5.28
2023-04-15T07:59:52.836Z,4.62
2023-04-15T08:03:05.372Z,4.05
2023-04-15T08:06:18.658Z,4.72
2023-04-15T08:09:31.304Z,4.05
2023-04-15T08:12:43.939Z,4.47
2023-04-15T08:16:17.445Z,3.03
2023-04-15T08:19:30.952Z,2.35
2023-04-15T08:22:43.374Z,3.25
2023-04-15T08:25:56.267Z,3.30
2023-04-15T08:29:09.205Z,3.83
2023-04-15T08:32:22.702Z,4.28
2023-04-15T08:35:35.137Z,4.03
2023-04-15T08:38:47.911Z,4.43
2023-04-15T08:42:04.055Z,2.80
2023-04-15T08:45:16.803Z,1.85
2023-04-15T08:48:29.554Z,2.92
2023-04-15T08:51:42.228Z,2.60
2023-04-15T08:54:56.926Z,3.42
2023-04-15T08:58:10.699Z,4.22
2023-04-15T09:01:23.158Z,8.02
2023-04-15T09:04:35.824Z,5.78
2023-04-15T09:07:48.822Z,6.37
2023-04-15T09:11:04.570Z,3.20
2023-04-15T09:14:17.459Z,5.47
2023-04-15T09:17:31.237Z,2.92
2023-04-15T09:20:43.640Z,2.45
2023-04-15T09:23:58.236Z,3.22
2023-04-15T09:27:11.230Z,3.45
2023-04-15T09:30:24.080Z,2.35
2023-04-15T09:33:36.746Z,1.70
2023-04-15T09:36:54.511Z,3.55
2023-04-15T09:40:08.921Z,2.37
2023-04-15T09:43:22.078Z,2.33
2023-04-15T09:46:44.390Z,2.47
2023-04-15T09:50:00.654Z,2.35
2023-04-15T09:53:19.806Z,1.73
2023-04-15T09:56:37.881Z,2.00
2023-04-15T09:59:51.118Z,2.47
2023-04-15T10:03:05.407Z,2.75
2023-04-15T10:06:18.239Z,3.30
2023-04-15T10:09:30.790Z,4.22
2023-04-15T10:12:43.480Z,5.18
2023-04-15T10:16:11.840Z,3.83
2023-04-15T10:19:24.982Z,3.08
2023-04-15T10:22:37.408Z,2.72
2023-04-15T10:25:51.238Z,2.40
2023-04-15T10:29:03.838Z,3.08
2023-04-15T10:32:18.958Z,2.15
2023-04-15T10:35:31.751Z,2.65
2023-04-15T10:38:45.727Z,2.15
2023-04-15T10:42:08.615Z,2.78
2023-04-15T10:45:21.237Z,4.03
2023-04-15T10:48:33.639Z,2.25
2023-04-15T10:51:47.465Z,2.62
2023-04-15T10:55:04.673Z,2.75
2023-04-15T10:58:17.356Z,5.80
2023-04-15T11:01:56.819Z,1.17
2023-04-15T11:05:10.941Z,1.60
2023-04-15T11:08:59.354Z,1.02
2023-04-15T11:12:12.155Z,1.77
2023-04-15T11:15:40.678Z,1.65
2023-04-15T11:18:56.541Z,1.48
2023-04-15T11:22:09.973Z,1.55
2023-04-15T11:25:29.887Z,1.37
2023-04-15T11:28:44.873Z,1.55
2023-04-15T11:32:09.998Z,1.67
2023-04-15T11:35:22.489Z,1.80
2023-04-15T11:38:35.348Z,4.28
2023-04-15T11:41:47.649Z,3.17
2023-04-15T11:45:07.716Z,1.60
2023-04-15T11:48:21.912Z,1.30
2023-04-15T11:51:34.975Z,1.45
2023-04-15T11:54:47.272Z,3.85
2023-04-15T11:58:08.447Z,2.33
2023-04-15T12:01:20.781Z,2.28
2023-04-15T12:04:33.714Z,3.12
2023-04-15T12:08:00.516Z,1.15
2023-04-15T12:11:13.166Z,1.50
2023-04-15T12:14:29.574Z,1.75
2023-04-15T12:17:51.025Z,1.75
2023-04-15T12:21:11.012Z,3.50
2023-04-15T12:24:23.734Z,3.08
2023-04-15T12:27:36.801Z,2.80
2023-04-15T12:30:51.609Z,1.35
2023-04-15T12:34:04.802Z,3.85
2023-04-15T12:37:17.795Z,1.48
2023-04-15T12:40:30.403Z,2.00
2023-04-15T12:43:45.629Z,5.85
2023-04-15T12:46:58.245Z,4.03
2023-04-15T12:50:11.440Z,3.65
2023-04-15T12:53:23.729Z,3.00
2023-04-15T12:56:36.378Z,2.30
2023-04-15T12:59:48.716Z,1.83
2023-04-15T13:03:02.454Z,4.97
2023-04-15T13:06:16.071Z,3.97
2023-04-15T13:09:28.653Z,4.07
2023-04-15T13:12:41.685Z,4.18
2023-04-15T13:15:54.417Z,3.25
2023-04-15T13:19:06.842Z,3.50
2023-04-15T13:22:19.516Z,3.60
2023-04-15T13:25:31.877Z,2.97
2023-04-15T13:28:44.593Z,2.40
2023-04-15T13:31:57.021Z,3.22
2023-04-15T13:35:09.670Z,3.85
2023-04-15T13:38:21.992Z,5.10
2023-04-15T13:41:34.631Z,3.90
2023-04-15T13:44:46.937Z,7.72
2023-04-15T13:47:59.639Z,4.47
2023-04-15T13:51:12.049Z,4.87
2023-04-15T13:54:24.693Z,3.85
2023-04-15T13:57:50.714Z,11.52
2023-04-15T14:01:05.746Z,3.92
2023-04-15T14:04:19.177Z,6.47
2023-04-15T14:07:31.614Z,4.75
2023-04-15T14:10:48.434Z,5.45
2023-04-15T14:14:01.111Z,4.82
2023-04-15T14:17:13.820Z,4.68
2023-04-15T14:20:26.130Z,4.75
2023-04-15T14:23:38.810Z,5.05
2023-04-15T14:26:51.196Z,5.15
2023-04-15T14:30:04.173Z,6.00
2023-04-15T14:33:16.518Z,5.12
2023-04-15T14:36:29.172Z,4.32
2023-04-15T14:39:41.960Z,4.40
2023-04-15T14:42:54.618Z,2.85
2023-04-15T14:46:07.063Z,2.37
2023-04-15T14:49:19.726Z,4.53
2023-04-15T14:52:38.808Z,2.10
2023-04-15T14:55:51.446Z,2.03
2023-04-15T14:59:03.932Z,3.80
2023-04-15T15:02:31.655Z,2.60
2023-04-15T15:05:49.279Z,1.30
2023-04-15T15:09:02.239Z,2.47
2023-04-15T15:12:14.749Z,2.50
2023-04-15T15:15:29.046Z,4.03
2023-04-15T15:18:41.643Z,2.67
2023-04-15T15:21:54.300Z,5.57
2023-04-15T15:25:06.781Z,7.00
2023-04-15T15:28:19.480Z,3.12
2023-04-15T15:31:31.860Z,1.75
2023-04-15T15:34:44.547Z,1.48
2023-04-15T15:37:56.879Z,1.77
2023-04-15T15:41:09.554Z,1.62
2023-04-15T15:44:21.930Z,2.75
2023-04-15T15:47:34.601Z,6.10
2023-04-15T15:50:47.021Z,3.58
2023-04-15T15:53:59.684Z,4.12
2023-04-15T15:57:12.204Z,2.20
2023-04-15T16:00:24.875Z,4.28
2023-04-15T16:03:37.568Z,6.95
2023-04-15T16:06:50.102Z,3.70
2023-04-15T16:10:02.714Z,2.75
2023-04-15T16:13:15.439Z,4.45
2023-04-15T16:16:30.009Z,2.15
2023-04-15T16:19:42.434Z,4.43
2023-04-15T16:23:15.184Z,26.62
2023-04-15T16:26:27.640Z,12.15
2023-04-15T16:29:40.299Z,5.10
2023-04-15T16:32:52.785Z,3.70
2023-04-15T16:36:05.763Z,3.87
2023-04-15T16:39:19.337Z,3.95
2023-04-15T16:42:31.977Z,5.82
2023-04-15T16:45:45.388Z,5.82
2023-04-15T16:48:58.128Z,4.95
2023-04-15T16:52:10.860Z,6.00
2023-04-15T16:55:23.516Z,4.57
2023-04-15T16:58:35.867Z,4.15
2023-04-15T17:01:48.728Z,7.03
2023-04-15T17:05:01.202Z,7.35
2023-04-15T17:08:13.833Z,5.03
2023-04-15T17:11:27.271Z,4.60
2023-04-15T17:14:39.906Z,4.57
2023-04-15T17:17:52.323Z,4.18
2023-04-15T17:21:05.340Z,6.28
2023-04-15T17:24:17.792Z,6.22
2023-04-15T17:27:31.111Z,8.30
2023-04-15T17:30:43.437Z,13.77
2023-04-15T17:34:07.232Z,11.45
2023-04-15T17:37:22.046Z,9.00
2023-04-15T17:40:34.658Z,10.55
2023-04-15T17:43:47.007Z,10.77
2023-04-15T17:46:59.654Z,5.70
2023-04-15T17:50:12.001Z,10.05
2023-04-15T17:53:24.644Z,14.07
2023-04-15T17:56:37.463Z,11.32
2023-04-15T17:59:50.254Z,6.80
2023-04-15T18:03:02.861Z,11.30
2023-04-15T18:06:17.010Z,7.47
2023-04-15T18:09:29.346Z,8.45
2023-04-15T18:12:41.988Z,8.05
2023-04-15T18:15:55.483Z,13.57
2023-04-15T18:19:08.213Z,26.00
2023-04-15T18:22:20.724Z,25.67
2023-04-15T18:25:34.226Z,15.95
2023-04-15T18:28:46.759Z,18.67
2023-04-15T18:32:00.406Z,19.42
2023-04-15T18:35:13.007Z,25.02
2023-04-15T18:38:25.760Z,31.52
2023-04-15T18:41:38.153Z,27.52
2023-04-15T18:44:51.075Z,13.52
2023-04-15T18:48:03.536Z,9.77
2023-04-15T18:51:16.264Z,21.12
2023-04-15T18:54:28.656Z,17.55
2023-04-15T18:57:44.794Z,15.50
2023-04-15T19:00:57.571Z,65.32
2023-04-15T19:04:11.321Z,40.08
2023-04-15T19:07:24.081Z,14.57
2023-04-15T19:10:36.780Z,11.95
2023-04-15T19:13:49.144Z,7.32
2023-04-15T19:17:01.846Z,6.80
2023-04-15T19:20:14.216Z,5.95
2023-04-15T19:23:26.907Z,8.23
2023-04-15T19:26:39.293Z,9.05
2023-04-15T19:29:51.907Z,7.78
2023-04-15T19:33:04.287Z,44.22
2023-04-15T19:36:18.292Z,46.03
2023-04-15T19:39:30.752Z,32.53
2023-04-15T19:42:44.240Z,30.70
2023-04-15T19:45:56.671Z,36.88
2023-04-15T19:49:09.608Z,35.08
2023-04-15T19:52:22.443Z,31.08
2023-04-15T19:55:35.128Z,29.63
2023-04-15T19:58:52.700Z,43.20
2023-04-15T20:02:05.484Z,18.40
2023-04-15T20:05:18.237Z,19.87
2023-04-15T20:08:30.669Z,25.90
2023-04-15T20:12:10.041Z,36.17
2023-04-15T20:15:16.545Z,29.70
2023-04-15T20:18:29.172Z,28.35
2023-04-15T20:21:41.522Z,29.80
2023-04-15T20:24:54.176Z,30.73
2023-04-15T20:28:06.552Z,26.42
2023-04-15T20:31:19.223Z,23.80
2023-04-15T20:34:31.754Z,22.48
2023-04-15T20:37:45.080Z,19.17
2023-04-15T20:40:58.199Z,20.02
2023-04-15T20:44:10.842Z,20.65
2023-04-15T20:47:23.192Z,25.70
2023-04-15T20:50:35.962Z,23.25
2023-04-15T20:53:49.141Z,26.45
2023-04-15T20:57:02.022Z,26.45
2023-04-15T21:00:15.176Z,28.92
2023-04-15T21:03:27.983Z,28.65
2023-04-15T21:06:40.571Z,22.80
2023-04-15T21:09:53.309Z,18.37
2023-04-15T21:13:06.794Z,16.20
2023-04-15T21:16:19.453Z,25.65
2023-04-15T21:19:31.833Z,22.75
2023-04-15T21:22:44.786Z,21.00
2023-04-15T21:25:57.418Z,18.73
2023-04-15T21:29:11.732Z,19.62
2023-04-15T21:32:24.539Z,15.40
2023-04-15T21:35:37.245Z,20.52
2023-04-15T21:38:49.702Z,42.95
2023-04-15T21:42:02.845Z,24.95
2023-04-15T21:45:16.352Z,21.48
2023-04-15T21:48:29.129Z,21.65
2023-04-15T21:51:41.543Z,19.25
2023-04-15T21:54:54.258Z,23.70
2023-04-15T21:58:06.570Z,19.75
2023-04-15T22:01:19.306Z,17.48
2023-04-15T22:04:32.013Z,20.65
2023-04-15T22:07:44.403Z,17.87
2023-04-15T22:10:57.052Z,18.80
2023-04-15T22:14:09.401Z,21.08
2023-04-15T22:17:22.057Z,20.95
2023-04-15T22:20:34.429Z,18.65
2023-04-15T22:23:48.115Z,14.98
2023-04-15T22:27:00.665Z,16.90
2023-04-15T22:30:13.285Z,15.75
2023-04-15T22:33:25.803Z,17.87
2023-04-15T22:36:38.456Z,20.90
2023-04-15T22:39:50.965Z,19.90
2023-04-15T22:43:03.547Z,22.42
2023-04-15T22:46:16.782Z,23.38
2023-04-15T22:49:29.474Z,20.80
2023-04-15T22:52:43.333Z,26.73
2023-04-15T22:55:56.051Z,28.27
2023-04-15T22:59:08.657Z,27.48
2023-04-15T23:02:21.635Z,28.08
2023-04-15T23:05:34.288Z,25.30
2023-04-15T23:08:47.837Z,26.83
2023-04-15T23:12:01.308Z,26.85
2023-04-15T23:15:13.986Z,26.60
2023-04-15T23:18:26.361Z,24.50
2023-04-15T23:21:39.029Z,23.02
2023-04-15T23:24:51.376Z,21.48
2023-04-15T23:28:04.021Z,21.92
2023-04-15T23:31:16.439Z,20.25
2023-04-15T23:34:29.158Z,21.05
2023-04-15T23:37:41.538Z,19.37
2023-04-15T23:40:54.213Z,20.65
2023-04-15T23:44:06.582Z,20.25
2023-04-15T23:47:19.297Z,18.45
2023-04-15T23:50:31.735Z,21.30
2023-04-15T23:53:44.342Z,19.05
2023-04-15T23:56:56.714Z,17.75
